ESNQESNS

Guest
Details From ESNQ - Kiruna
To ESNS - Skelleftea
Flight Number -
Tags generated
Created
Modified
Stats Distance 213 nm / 394 km
Max Altitude 22,300 ft / 6,797 m
Waypoints 6
Social Downloads 0
Likes 0
Share VATSIM

Download

Looking for another format? Having issues loading an existing format? Contact us
Advertisement - Login to hide

Notes

Basic altitude profile: - Ascent Rate: 2500ft/min - Ascent Speed: 250kts - Cruise Altitude: 35000ft - Cruise Speed: 420kts - Descent Rate: 1500ft/min - Descent Speed: 250kts Options: - Use NATs: no - Use PACOTS: no - Use low airways: yes - Use high airways: no

Route

ESNQ KRA T317 REKMI ESNS

ID Type Via Altitude Latitude Longitude Leg Dist Tot Dist Heading (true) Name
O ESNQ APT - 0 ft / 0 m 67.82198˚ 20.33676˚ - 0 nm - Kiruna
KRA VOR - 0 ft / 0 m 67.81922˚ 20.33750˚ 0 nm 0 nm 174° / 174° KIRUNA VOR-DME
VAGAS FIX T317 (AWY-LO) 10,200 ft / 3,109 m 67.34922˚ 20.15214˚ 28 nm 28 nm 189° / 188° -
RIXAN FIX T317 (AWY-LO) 22,300 ft / 6,797 m 66.74167˚ 19.94939˚ 36 nm 65 nm 188° / 187° -
REKMI FIX T317 (AWY-LO) 10,300 ft / 3,139 m 65.18297˚ 19.47256˚ 94 nm 159 nm 187° / 187° -
O ESNS APT - 0 ft / 0 m 64.62477˚ 21.07687˚ 52 nm 212 nm 129° / 130° Skelleftea

Altitude Profile

Advertisement - Login to hide

Weather


0- 5 10 15 20 25 30 35+ Temperature / ° C

Clouds and Precipitation
Forecast for 2017-12-15 18:00 UTC. Updated 20 minutes ago

Ground ~20,000 ft ~40,000 ft Winds

ESNQ

Details ICAO ESNQ (KRN)
Name Kiruna
Region Sweden
Timezone Europe/Stockholm (UTC+1.0)
Stats Elevation 1,508 ft / 460 m (AMSL)
Location 67.821984° 20.336762°
Runways 1
Magnetic Variation 9.073° E

METAR

ESNQ 151720Z 00000KT 9999 -SN OVC008 M10/M11 Q0993

Decode

TAF

Not found

Departure Runways

ID Width Length Bearing (true) Bearing (mag) Surface Threshold Offset Overrun Length
03 148 ft / 45 m 8,183 ft / 2,494 m 33.63° 24.56° Asphalt 0 ft / 0 m 200 ft / 61 m
21 148 ft / 45 m 8,183 ft / 2,494 m 213.66° 204.59° Asphalt 0 ft / 0 m 200 ft / 61 m

ESNS

Details ICAO ESNS (SFT)
Name Skelleftea
Region Sweden
Timezone Europe/Stockholm (UTC+1.0)
Stats Elevation 155 ft / 47 m (AMSL)
Location 64.624772° 21.076867°
Runways 1
Magnetic Variation 8.559° E

METAR

ESNS 151720Z 33004KT 9999 BKN004 M02/M02 Q0994

Decode

TAF

Not found

Destination Runways

ID Width Length Bearing (true) Bearing (mag) Surface Threshold Offset Overrun Length
10 148 ft / 45 m 6,872 ft / 2,095 m 106.26° 97.70° Asphalt 0 ft / 0 m 0 ft / 0 m
28 148 ft / 45 m 6,872 ft / 2,095 m 286.30° 277.74° Asphalt 0 ft / 0 m 0 ft / 0 m

Approach Navaids

Runway Type Ident Frequency Range Bearing (true) Bearing (mag) Slope Elevation
28 Localiser NS 109.50 MHz 18 nm / 33 km 286.26° 277.70° - 155 ft / 47 m (AMSL)
28 Glidescope NS 109.50 MHz 10 nm / 19 km 286.28° 277.72° 3.00° 155 ft / 47 m (AMSL)